Youghal, Ireland
Current Conditions -  °F | °C
As of 9:00 AM on Tuesday 27 Jan 2015 (Local Time) from EICK Reporting Station
Broken Clouds Broken Clouds  
Wind Chill: 36°   Ceiling: 1800
Heat Index: 41°   Visibility: 6mi
Dew Point: 39°   Wind: 7mph
Humidity: 93%   Direction: 230°SW
Pressure: 30.42"   Gusts: NA
Location:  51.95°N, 7.85°W
Report Text: EICK 270800Z 23006KT 9999 SCT012 BKN018 05/04 Q1030 NOSIG
Loading
Personal Weather Stations






























Interactive Weather Map New forecast layout! Learn more

10-Day Weather Forecast

Advertisements
Track Severe Weather on mobile